Producer — WDH9695 — position and weather

sailwx.info

Track history (hours):
 
Tides and Currents Weather Stations Pressure Air Temp Water Temp Dewpoint Dewpoint Depression Visibility Wind Speed Wind Dir Waves Ship Positions

Producer

Owner: Pro Sportfishing, San Diego, CA, CA. More information available from US FCC via Universal Licensing System and Coast Guard Vessel Documentation Center.

Last reported at 2018-Jul-16 02:31 UTC. Time now 2018-Jul-16 02:29 UTC.
Position N 32°43' W 117°14'.

Type: Passenger vessel. MMSI: 367033990.

Date/timePositionNaut miles runAvg speedWind from/ knotsBaromVisibWave heightAir tempDewpointWater temp
2018-Jul-16 02:31N 32°43' W 117°14'0 0.0
2018-Jul-16 02:01N 32°43' W 117°14'3 6.7
2018-Jul-16 01:31N 32°40' W 117°14'4 8.2
2018-Jul-16 01:00N 32°38' W 117°18'4 9.1
2018-Jul-16 00:31N 32°37' W 117°23'5 8.9
2018-Jul-16 00:00N 32°36' W 117°28'4 8.9
2018-Jul-15 23:31N 32°36' W 117°34'5 9.2
2018-Jul-15 23:00N 32°35' W 117°39'5 9.9
2018-Jul-15 22:29N 32°34' W 117°45'4 7.4
2018-Jul-15 22:00N 32°33' W 117°49'3 6.7
2018-Jul-15 21:30N 32°32' W 117°53'4 8.1
2018-Jul-15 21:00N 32°32' W 117°58'4 7.9
2018-Jul-15 20:31N 32°31' W 118°02'2 4.2
2018-Jul-15 20:01N 32°32' W 118°00'2 4.1
2018-Jul-15 19:30N 32°34' W 117°59'0 0.6
2018-Jul-15 19:00N 32°34' W 117°60'2 3.1
2018-Jul-15 18:24N 32°34' W 117°57'0 0.9
2018-Jul-15 18:00N 32°35' W 117°57'0 0.8
2018-Jul-15 17:30N 32°34' W 117°58'0 0.9
2018-Jul-15 17:01N 32°34' W 117°58'1 1.4
2018-Jul-15 16:30N 32°34' W 117°57'0 0.7
2018-Jul-15 16:00N 32°34' W 117°58'0 0.6
2018-Jul-15 15:31N 32°34' W 117°58'1 1.2
2018-Jul-15 14:57N 32°34' W 117°59'0 0.5
2018-Jul-15 14:31N 32°33' W 117°59'1 2.5
2018-Jul-15 14:01N 32°32' W 117°60'0 0.9
2018-Jul-15 13:31N 32°32' W 118°00'1 1.4
2018-Jul-15 13:00N 32°33' W 117°60'0 0.5
2018-Jul-15 12:30N 32°33' W 118°00'0 0.6
2018-Jul-15 12:00N 32°33' W 117°60'0 0.3
2018-Jul-15 11:31N 32°33' W 117°60'1 2.2
2018-Jul-15 11:00N 32°34' W 117°59'4 7.8
2018-Jul-15 10:29N 32°33' W 117°54'4 8.0
2018-Jul-15 09:59N 32°34' W 117°49'4 7.9
2018-Jul-15 09:30N 32°36' W 117°45'5 8.9
2018-Jul-15 08:59N 32°36' W 117°40'5 8.8
2018-Jul-15 08:28N 32°37' W 117°34'4 8.8
2018-Jul-15 08:00N 32°37' W 117°29'5 9.0
2018-Jul-15 07:30N 32°37' W 117°24'6 9.1
2018-Jul-15 06:49N 32°38' W 117°17'3 8.6
2018-Jul-15 06:30N 32°39' W 117°14'3 5.5
2018-Jul-15 06:00N 32°42' W 117°14'0 0.0
2018-Jul-15 05:30N 32°42' W 117°14'0 0.0
2018-Jul-15 05:00N 32°42' W 117°14'2 3.5
2018-Jul-15 04:30N 32°43' W 117°14'0 0.0
2018-Jul-15 04:01N 32°43' W 117°14'0 0.0
2018-Jul-15 03:30N 32°43' W 117°14'0 0.0
2018-Jul-15 03:01N 32°43' W 117°14'0 0.0
2018-Jul-15 02:30N 32°43' W 117°14'0 0.0
2018-Jul-15 02:01N 32°43' W 117°14'4 7.8
2018-Jul-15 01:30N 32°40' W 117°14'4 8.8
2018-Jul-15 01:01N 32°40' W 117°19'5 9.7
2018-Jul-15 00:31N 32°40' W 117°25'5 9.5
2018-Jul-15 00:00N 32°40' W 117°31'5 9.5
2018-Jul-14 23:31N 32°40' W 117°36'5 9.6
2018-Jul-14 23:00N 32°41' W 117°42'5 9.4
2018-Jul-14 22:30N 32°40' W 117°47'4 7.0
2018-Jul-14 21:59N 32°40' W 117°52'3 5.2
2018-Jul-14 21:28N 32°37' W 117°52'1 2.5
2018-Jul-14 21:00N 32°36' W 117°52'3 6.7
2018-Jul-14 20:30N 32°33' W 117°55'3 5.0
2018-Jul-14 20:00N 32°31' W 117°57'2 4.9
2018-Jul-14 19:29N 32°29' W 117°58'2 4.4
2018-Jul-14 19:01N 32°30' W 117°56'0 0.4
2018-Jul-14 18:30N 32°29' W 117°56'2 4.0
2018-Jul-14 18:01N 32°29' W 117°58'1 1.7
2018-Jul-14 17:31N 32°28' W 117°59'2 3.1
2018-Jul-14 16:56N 32°29' W 117°57'1 3.0
2018-Jul-14 16:30N 32°29' W 117°56'1 1.1
2018-Jul-14 16:00N 32°30' W 117°56'0 1.0
2018-Jul-14 15:30N 32°30' W 117°55'0 0.3
2018-Jul-14 15:01N 32°29' W 117°56'0 0.5
2018-Jul-14 14:30N 32°30' W 117°56'1 1.1
2018-Jul-14 13:23N 32°30' W 117°54'0 0.2
2018-Jul-14 13:00N 32°30' W 117°54'2 2.9
2018-Jul-14 12:29N 32°29' W 117°53'0 0.4
2018-Jul-14 11:58N 32°29' W 117°53'0 0.5
2018-Jul-14 11:26N 32°29' W 117°53'0 0.5
2018-Jul-14 10:59N 32°30' W 117°54'7 5.6
2018-Jul-14 09:47N 32°32' W 117°46'3 8.9
2018-Jul-14 09:28N 32°32' W 117°43'4 9.0
2018-Jul-14 09:01N 32°33' W 117°38'5 9.0
2018-Jul-14 08:28N 32°34' W 117°32'4 8.9
2018-Jul-14 08:00N 32°35' W 117°28'5 9.3
2018-Jul-14 07:27N 32°37' W 117°22'4 9.3
2018-Jul-14 07:01N 32°38' W 117°17'4 7.6
2018-Jul-14 06:31N 32°40' W 117°14'2 3.1
2018-Jul-14 06:01N 32°42' W 117°14'0 0.0
2018-Jul-14 05:31N 32°42' W 117°14'2 3.5
2018-Jul-14 05:01N 32°43' W 117°14'0 0.0
2018-Jul-14 04:31N 32°43' W 117°14'0 0.0
2018-Jul-14 04:01N 32°43' W 117°14'0 0.0
2018-Jul-14 03:30N 32°43' W 117°14'0 0.0
2018-Jul-14 03:00N 32°43' W 117°14'0 0.0
2018-Jul-14 02:31N 32°43' W 117°14'0 0.0
2018-Jul-14 02:00N 32°43' W 117°14'0 0.0
2018-Jul-14 01:30N 32°43' W 117°14'0 0.0
2018-Jul-14 01:00N 32°43' W 117°14'0 0.0
2018-Jul-14 00:30N 32°43' W 117°14'0 0.0
2018-Jul-14 00:00N 32°43' W 117°14'0 0.0
2018-Jul-13 23:31N 32°43' W 117°14'0 0.0
2018-Jul-13 23:00N 32°43' W 117°14'0 0.0
2018-Jul-13 22:31N 32°43' W 117°14'0 0.0
2018-Jul-13 21:55N 32°43' W 117°14'0 0.0
2018-Jul-13 21:30N 32°43' W 117°14'0 0.0
2018-Jul-13 21:00N 32°43' W 117°14'0 0.0
2018-Jul-13 20:30N 32°43' W 117°14'0 0.0
2018-Jul-13 20:00N 32°43' W 117°14'0 0.0
2018-Jul-13 19:31N 32°43' W 117°14'0 0.0
2018-Jul-13 19:00N 32°43' W 117°14'0 0.0
2018-Jul-13 18:31N 32°43' W 117°14'0 0.0
2018-Jul-13 18:00N 32°43' W 117°14'0 0.0
2018-Jul-13 17:31N 32°43' W 117°14'0 0.0
2018-Jul-13 17:01N 32°43' W 117°14'0 0.0
2018-Jul-13 16:30N 32°43' W 117°14'0 0.0
2018-Jul-13 16:00N 32°43' W 117°14'0 0.0
2018-Jul-13 15:31N 32°43' W 117°14'0 0.0
2018-Jul-13 15:00N 32°43' W 117°14'0 0.0
2018-Jul-13 14:01N 32°43' W 117°14'0 0.0
2018-Jul-13 13:30N 32°43' W 117°14'0 0.0
2018-Jul-13 13:01N 32°43' W 117°14'0 0.0
2018-Jul-13 12:30N 32°43' W 117°14'0 0.0
2018-Jul-13 12:00N 32°43' W 117°14'0 0.0
2018-Jul-13 11:30N 32°43' W 117°14'0 0.0
2018-Jul-13 11:00N 32°43' W 117°14'0 0.0
2018-Jul-13 10:30N 32°43' W 117°14'0 0.0
2018-Jul-13 10:00N 32°43' W 117°14'0 0.0
2018-Jul-13 09:30N 32°43' W 117°14'0 0.0
2018-Jul-13 09:00N 32°43' W 117°14'0 0.0
2018-Jul-13 08:29N 32°43' W 117°14'0 0.0
2018-Jul-13 08:00N 32°43' W 117°14'0 0.0
2018-Jul-13 07:31N 32°43' W 117°14'0 0.0
2018-Jul-13 07:01N 32°43' W 117°14'0 0.0
2018-Jul-13 06:31N 32°43' W 117°14'0 0.0
2018-Jul-13 06:01N 32°43' W 117°14'0 0.0
2018-Jul-13 05:30N 32°43' W 117°14'0 0.0
2018-Jul-13 05:00N 32°43' W 117°14'0 0.0
2018-Jul-13 04:31N 32°43' W 117°14'0 0.0
2018-Jul-13 04:01N 32°43' W 117°14'0 0.0
2018-Jul-13 03:30N 32°43' W 117°14'0 0.0
2018-Jul-13 03:00N 32°43' W 117°14'0 0.0
2018-Jul-13 02:30N 32°43' W 117°14'0 0.0
2018-Jul-13 02:01N 32°43' W 117°14'0 0.0
2018-Jul-13 01:30N 32°43' W 117°14'0 0.0
2018-Jul-13 00:59N 32°43' W 117°14'0 0.0
2018-Jul-13 00:30N 32°43' W 117°14'0 0.0
2018-Jul-13 00:00N 32°43' W 117°14'0 0.0
2018-Jul-12 23:30N 32°43' W 117°14'0 0.0
2018-Jul-12 23:00N 32°43' W 117°14'0 0.0
2018-Jul-12 22:30N 32°43' W 117°14'0 0.0
2018-Jul-12 22:01N 32°43' W 117°14'0 0.0
2018-Jul-12 21:30N 32°43' W 117°14'0 0.0
2018-Jul-12 21:00N 32°43' W 117°14'0 0.0
2018-Jul-12 20:30N 32°43' W 117°14'0 0.0
2018-Jul-12 20:00N 32°43' W 117°14'0 0.0
2018-Jul-12 19:28N 32°43' W 117°14'0 0.0
2018-Jul-12 19:00N 32°43' W 117°14'0 0.0
2018-Jul-12 18:30N 32°43' W 117°14'0 0.0
2018-Jul-12 18:00N 32°43' W 117°14'0 0.0
2018-Jul-12 17:30N 32°43' W 117°14'0 0.0
2018-Jul-12 17:00N 32°43' W 117°14'0 0.0
2018-Jul-12 16:29N 32°43' W 117°14'0 0.0
2018-Jul-12 16:00N 32°43' W 117°14'0 0.0
2018-Jul-12 15:30N 32°43' W 117°14'0 0.0
2018-Jul-12 15:00N 32°43' W 117°14'0 0.0
2018-Jul-12 14:30N 32°43' W 117°14'0 0.0
2018-Jul-12 14:00N 32°43' W 117°14'0 0.0
2018-Jul-12 13:30N 32°43' W 117°14'0 0.0
2018-Jul-12 13:00N 32°43' W 117°14'0 0.0
2018-Jul-12 12:30N 32°43' W 117°14'0 0.0
2018-Jul-12 12:00N 32°43' W 117°14'0 0.0
2018-Jul-12 11:29N 32°43' W 117°14'0 0.0
2018-Jul-12 11:00N 32°43' W 117°14'0 0.0
2018-Jul-12 10:30N 32°43' W 117°14'0 0.0
2018-Jul-12 10:00N 32°43' W 117°14'0 0.0
2018-Jul-12 09:30N 32°43' W 117°14'0 0.0
2018-Jul-12 09:00N 32°43' W 117°14'0 0.0
2018-Jul-12 08:30N 32°43' W 117°14'0 0.0
2018-Jul-12 08:00N 32°43' W 117°14'0 0.0
2018-Jul-12 07:30N 32°43' W 117°14'0 0.0
2018-Jul-12 06:59N 32°43' W 117°14'0 0.0
2018-Jul-12 06:30N 32°43' W 117°14'0 0.0
2018-Jul-12 06:00N 32°43' W 117°14'0 0.0
2018-Jul-12 05:30N 32°43' W 117°14'0 0.0
2018-Jul-12 05:00N 32°43' W 117°14'0 0.0
2018-Jul-12 04:30N 32°43' W 117°14'0 0.0
2018-Jul-12 04:00N 32°43' W 117°14'0 0.0
2018-Jul-12 03:30N 32°43' W 117°14'0 0.0
2018-Jul-12 03:00N 32°43' W 117°14'0 0.0
2018-Jul-12 02:30N 32°43' W 117°14'0 0.0
2018-Jul-12 02:00N 32°43' W 117°14'0 0.0
2018-Jul-12 01:30N 32°43' W 117°14'0 0.0
2018-Jul-12 01:00N 32°43' W 117°14'0 0.0
2018-Jul-12 00:30N 32°43' W 117°14'0 0.0
2018-Jul-12 00:00N 32°43' W 117°14'0 0.0
2018-Jul-11 23:30N 32°43' W 117°14'0 0.0
2018-Jul-11 23:00N 32°43' W 117°14'0 0.0
2018-Jul-11 22:30N 32°43' W 117°14'0 0.0
2018-Jul-11 21:59N 32°43' W 117°14'0 0.0
2018-Jul-11 21:29N 32°43' W 117°14'0 0.0
2018-Jul-11 21:00N 32°43' W 117°14'0 0.0
2018-Jul-11 20:30N 32°43' W 117°14'0 0.0
2018-Jul-11 20:00N 32°43' W 117°14'0 0.0
2018-Jul-11 19:30N 32°43' W 117°14'0 0.0
2018-Jul-11 19:00N 32°43' W 117°14'0 0.0
2018-Jul-11 18:30N 32°43' W 117°14'0 0.0
2018-Jul-11 18:00N 32°43' W 117°14'0 0.0
2018-Jul-11 17:30N 32°43' W 117°14'0 0.0
2018-Jul-11 17:00N 32°43' W 117°14'0 0.0
2018-Jul-11 16:30N 32°43' W 117°14'0 0.0
2018-Jul-11 16:00N 32°43' W 117°14'0 0.0
2018-Jul-11 15:30N 32°43' W 117°14'0 0.0
2018-Jul-11 15:00N 32°43' W 117°14'0 0.0
2018-Jul-11 14:30N 32°43' W 117°14'0 0.0
2018-Jul-11 14:00N 32°43' W 117°14'0 0.0
2018-Jul-11 13:30N 32°43' W 117°14'0 0.0
2018-Jul-11 13:00N 32°43' W 117°14'0 0.0
2018-Jul-11 12:30N 32°43' W 117°14'0 0.0
2018-Jul-11 12:00N 32°43' W 117°14'0 0.0
2018-Jul-11 11:30N 32°43' W 117°14'0 0.0
2018-Jul-11 11:00N 32°43' W 117°14'0 0.0
2018-Jul-11 10:30N 32°43' W 117°14'0 0.0
2018-Jul-11 10:00N 32°43' W 117°14'0 0.0
2018-Jul-11 09:30N 32°43' W 117°14'0 0.0
2018-Jul-11 09:00N 32°43' W 117°14'0 0.0
2018-Jul-11 08:30N 32°43' W 117°14'0 0.0
2018-Jul-11 08:00N 32°43' W 117°14'0 0.0
2018-Jul-11 07:30N 32°43' W 117°14'0 0.0
2018-Jul-11 07:00N 32°43' W 117°14'0 0.0
2018-Jul-11 06:30N 32°43' W 117°14'0 0.0
2018-Jul-11 06:00N 32°43' W 117°14'0 0.0
2018-Jul-11 05:30N 32°43' W 117°14'0 0.0
2018-Jul-11 05:00N 32°43' W 117°14'0 0.0
2018-Jul-11 04:30N 32°43' W 117°14'0 0.0
2018-Jul-11 04:00N 32°43' W 117°14'0 0.0
2018-Jul-11 03:30N 32°43' W 117°14'0 0.0
2018-Jul-11 03:00N 32°43' W 117°14'0 0.0
2018-Jul-11 02:30N 32°43' W 117°14'3 5.4
2018-Jul-11 02:00N 32°41' W 117°14'3 6.3
2018-Jul-11 01:30N 32°39' W 117°17'5 9.3
2018-Jul-11 01:00N 32°40' W 117°23'5 9.6
2018-Jul-11 00:30N 32°42' W 117°28'510.0
2018-Jul-11 00:00N 32°43' W 117°34'4 8.9
2018-Jul-10 23:30N 32°43' W 117°39'3 5.6
2018-Jul-10 23:00N 32°43' W 117°42'5 9.6
2018-Jul-10 22:31N 32°43' W 117°48'1 1.8
2018-Jul-10 22:00N 32°44' W 117°49'1 2.6
2018-Jul-10 21:30N 32°43' W 117°50'0 0.9
2018-Jul-10 21:00N 32°43' W 117°50'0 0.9
2018-Jul-10 20:30N 32°42' W 117°50'0 0.6
2018-Jul-10 20:00N 32°42' W 117°50'2 3.2
2018-Jul-10 19:30N 32°43' W 117°48'1 2.7
2018-Jul-10 19:00N 32°43' W 117°50'2 3.5
2018-Jul-10 18:30N 32°43' W 117°52'3 5.1
2018-Jul-10 18:00N 32°42' W 117°54'1 1.1
2018-Jul-10 17:30N 32°41' W 117°55'2 4.6
2018-Jul-10 17:00N 32°40' W 117°57'2 4.1
2018-Jul-10 16:30N 32°38' W 117°57'1 2.6
2018-Jul-10 16:00N 32°39' W 117°56'1 2.9
2018-Jul-10 15:30N 32°40' W 117°55'1 1.8
2018-Jul-10 15:00N 32°40' W 117°54'1 2.2
2018-Jul-10 14:30N 32°40' W 117°53'1 1.6
2018-Jul-10 14:00N 32°40' W 117°53'3 6.3
2018-Jul-10 13:30N 32°41' W 117°50'1 1.3
2018-Jul-10 13:00N 32°41' W 117°51'1 2.9
2018-Jul-10 12:30N 32°41' W 117°52'1 2.8
2018-Jul-10 12:00N 32°41' W 117°51'1 1.4
2018-Jul-10 11:30N 32°41' W 117°50'2 4.9
2018-Jul-10 11:00N 32°40' W 117°47'0 0.7
2018-Jul-10 10:30N 32°40' W 117°48'0 0.5
2018-Jul-10 10:00N 32°39' W 117°48'1 2.9
2018-Jul-10 09:29N 32°39' W 117°46'5 9.1
2018-Jul-10 08:59N 32°39' W 117°40'4 9.2
2018-Jul-10 08:30N 32°39' W 117°35'5 9.2
2018-Jul-10 08:00N 32°39' W 117°30'5 9.1
2018-Jul-10 07:30N 32°39' W 117°25'6 9.5
2018-Jul-10 06:52N 32°38' W 117°17'4 7.0
2018-Jul-10 06:20N 32°41' W 117°14'1 3.5
2018-Jul-10 05:59N 32°42' W 117°14'0 0.0
2018-Jul-10 05:30N 32°42' W 117°14'2 3.4
2018-Jul-10 04:59N 32°43' W 117°13'0 0.5
2018-Jul-10 04:30N 32°43' W 117°14'0 0.0
2018-Jul-10 04:00N 32°43' W 117°14'0 0.0
2018-Jul-10 03:30N 32°43' W 117°14'0 0.0
2018-Jul-10 03:00N 32°43' W 117°14'0 0.0
2018-Jul-10 02:30N 32°43' W 117°14'0 0.0
2018-Jul-10 02:00N 32°43' W 117°14'0 0.0
2018-Jul-10 01:30N 32°43' W 117°14'0 0.0
2018-Jul-10 01:00N 32°43' W 117°14'0 0.0
2018-Jul-10 00:30N 32°43' W 117°14'0 0.0
2018-Jul-09 23:58N 32°43' W 117°14'0 0.0
2018-Jul-09 23:30N 32°43' W 117°14'0 0.0
2018-Jul-09 23:00N 32°43' W 117°14'0 0.0
2018-Jul-09 22:30N 32°43' W 117°14'0 0.0
2018-Jul-09 22:00N 32°43' W 117°14'0 0.0
2018-Jul-09 21:30N 32°43' W 117°14'0 0.0
2018-Jul-09 21:01N 32°43' W 117°14'0 0.0
2018-Jul-09 20:28N 32°43' W 117°14'0 0.0
2018-Jul-09 20:00N 32°43' W 117°14'0 0.0
2018-Jul-09 19:30N 32°43' W 117°14'0 0.0
2018-Jul-09 19:00N 32°43' W 117°14'0 0.0
2018-Jul-09 18:30N 32°43' W 117°14'0 0.0
2018-Jul-09 18:00N 32°43' W 117°14'0 0.0
2018-Jul-09 17:29N 32°43' W 117°14'0 0.0
2018-Jul-09 17:00N 32°43' W 117°14'0 0.0
2018-Jul-09 16:30N 32°43' W 117°14'0 0.0
2018-Jul-09 16:00N 32°43' W 117°14'0 0.0
2018-Jul-09 15:30N 32°43' W 117°14'0 0.0
2018-Jul-09 15:00N 32°43' W 117°14'0 0.0
2018-Jul-09 14:29N 32°43' W 117°14'0 0.0
2018-Jul-09 14:00N 32°43' W 117°14'0 0.0
2018-Jul-09 13:30N 32°43' W 117°14'0 0.0
2018-Jul-09 13:00N 32°43' W 117°14'0 0.0
2018-Jul-09 12:31N 32°43' W 117°14'0 0.0
2018-Jul-09 12:00N 32°43' W 117°14'0 0.0
2018-Jul-09 11:30N 32°43' W 117°14'0 0.0
2018-Jul-09 11:00N 32°43' W 117°14'0 0.0
2018-Jul-09 10:30N 32°43' W 117°14'0 0.0
2018-Jul-09 10:00N 32°43' W 117°14'0 0.0
2018-Jul-09 09:30N 32°43' W 117°14'0 0.0
2018-Jul-09 09:01N 32°43' W 117°14'0 0.0
2018-Jul-09 08:30N 32°43' W 117°14'0 0.0
2018-Jul-09 08:00N 32°43' W 117°14'0 0.0
2018-Jul-09 07:30N 32°43' W 117°14'0 0.0
2018-Jul-09 07:00N 32°43' W 117°14'0 0.0
2018-Jul-09 06:30N 32°43' W 117°14'0 0.0
2018-Jul-09 05:59N 32°43' W 117°14'0 0.0
2018-Jul-09 05:30N 32°43' W 117°14'0 0.0
2018-Jul-09 05:00N 32°43' W 117°14'0 0.0
2018-Jul-09 04:30N 32°43' W 117°14'0 0.0
2018-Jul-09 04:00N 32°43' W 117°14'0 0.0
2018-Jul-09 03:30N 32°43' W 117°14'0 0.0
2018-Jul-09 03:01N 32°43' W 117°14'0 0.0
2018-Jul-09 02:31N 32°43' W 117°14'0 0.0
2018-Jul-09 01:59N 32°43' W 117°14'0 0.0
2018-Jul-09 01:30N 32°43' W 117°14'0 0.0
2018-Jul-09 01:00N 32°43' W 117°14'0 0.0
2018-Jul-09 00:30N 32°43' W 117°14'0 0.0
2018-Jul-08 23:59N 32°43' W 117°14'0 0.0
2018-Jul-08 23:29N 32°43' W 117°14'0 0.0
2018-Jul-08 23:00N 32°43' W 117°14'0 0.0
2018-Jul-08 22:30N 32°43' W 117°14'0 0.0
2018-Jul-08 22:00N 32°43' W 117°14'0 0.0
2018-Jul-08 21:30N 32°43' W 117°14'0 0.0
2018-Jul-08 21:00N 32°43' W 117°14'0 0.0
2018-Jul-08 20:30N 32°43' W 117°14'0 0.0
2018-Jul-08 19:59N 32°43' W 117°14'0 0.0
2018-Jul-08 19:30N 32°43' W 117°14'0 0.0
2018-Jul-08 19:00N 32°43' W 117°14'0 0.0
2018-Jul-08 18:30N 32°43' W 117°14'0 0.0
2018-Jul-08 17:58N 32°43' W 117°14'0 0.0
2018-Jul-08 17:30N 32°43' W 117°14'0 0.0
2018-Jul-08 17:00N 32°43' W 117°14'0 0.0
2018-Jul-08 16:30N 32°43' W 117°14'0 0.0
2018-Jul-08 16:00N 32°43' W 117°14'0 0.0
2018-Jul-08 15:30N 32°43' W 117°14'0 0.0
2018-Jul-08 15:00N 32°43' W 117°14'0 0.0
2018-Jul-08 14:30N 32°43' W 117°14'0 0.0
2018-Jul-08 14:00N 32°43' W 117°14'0 0.0
2018-Jul-08 13:31N 32°43' W 117°14'0 0.0
2018-Jul-08 13:00N 32°43' W 117°14'0 0.0
2018-Jul-08 12:30N 32°43' W 117°14'0 0.0
2018-Jul-08 12:00N 32°43' W 117°14'0 0.0
2018-Jul-08 11:30N 32°43' W 117°14'0 0.0
2018-Jul-08 11:00N 32°43' W 117°14'0 0.0
2018-Jul-08 10:30N 32°43' W 117°14'0 0.0
2018-Jul-08 10:00N 32°43' W 117°14'0 0.0
2018-Jul-08 09:31N 32°43' W 117°14'0 0.0
2018-Jul-08 09:00N 32°43' W 117°14'0 0.0
2018-Jul-08 08:30N 32°43' W 117°14'0 0.0
2018-Jul-08 08:00N 32°43' W 117°14'0 0.0
2018-Jul-08 07:30N 32°43' W 117°14'0 0.0
2018-Jul-08 07:00N 32°43' W 117°14'0 0.0
2018-Jul-08 06:30N 32°43' W 117°14'0 0.0
2018-Jul-08 06:00N 32°43' W 117°14'0 0.0
2018-Jul-08 05:29N 32°43' W 117°14'0 0.0
2018-Jul-08 05:00N 32°43' W 117°14'0 0.0
2018-Jul-08 04:30N 32°43' W 117°14'0 0.0
2018-Jul-08 04:00N 32°43' W 117°14'0 0.0
2018-Jul-08 03:30N 32°43' W 117°14'0 0.0
2018-Jul-08 03:00N 32°43' W 117°14'0 0.0
2018-Jul-08 02:30N 32°43' W 117°14'1 2.9
2018-Jul-08 02:00N 32°42' W 117°14'4 8.8
2018-Jul-08 01:30N 32°38' W 117°15'5 9.6
2018-Jul-08 01:00N 32°34' W 117°18'5 9.7
2018-Jul-08 00:30N 32°30' W 117°21'5 9.6
2018-Jul-08 00:00N 32°26' W 117°24'5 9.9
2018-Jul-07 23:31N 32°22' W 117°28'5 9.9
2018-Jul-07 23:00N 32°17' W 117°31'1 2.9
2018-Jul-07 22:30N 32°16' W 117°32'4 7.1
2018-Jul-07 22:00N 32°13' W 117°34'1 2.2
2018-Jul-07 21:27N 32°13' W 117°32'0 0.7
2018-Jul-07 20:52N 32°13' W 117°32'1 1.7
2018-Jul-07 20:27N 32°12' W 117°32'1 1.4
2018-Jul-07 20:00N 32°12' W 117°33'2 4.4
2018-Jul-07 19:30N 32°10' W 117°32'2 4.9
2018-Jul-07 19:01N 32°08' W 117°31'1 2.3
2018-Jul-07 18:27N 32°07' W 117°30'2 4.5
2018-Jul-07 18:00N 32°06' W 117°32'1 2.0
2018-Jul-07 17:30N 32°05' W 117°33'2 3.7
2018-Jul-07 17:00N 32°03' W 117°32'2 3.1
2018-Jul-07 16:30N 32°02' W 117°32'3 5.2
2018-Jul-07 16:01N 31°60' W 117°30'2 4.8
2018-Jul-07 15:29N 31°58' W 117°28'4 6.9
2018-Jul-07 14:58N 31°57' W 117°24'3 6.3
2018-Jul-07 14:30N 31°58' W 117°21'3 5.8
2018-Jul-07 14:00N 32°01' W 117°20'1 1.8
2018-Jul-07 13:30N 32°01' W 117°18'2 3.1
2018-Jul-07 12:59N 32°01' W 117°20'0 0.3
2018-Jul-07 11:44N 32°00' W 117°21'2 6.7
2018-Jul-07 11:30N 32°02' W 117°20'4 8.6
2018-Jul-07 11:00N 32°06' W 117°21'4 8.9
2018-Jul-07 10:30N 32°11' W 117°21'5 8.6
2018-Jul-07 09:55N 32°16' W 117°19'4 8.8
2018-Jul-07 09:30N 32°19' W 117°18'4 8.7
2018-Jul-07 09:01N 32°23' W 117°17'4 8.5
2018-Jul-07 08:31N 32°27' W 117°16'4 8.2
2018-Jul-07 08:00N 32°32' W 117°16'4 8.3
2018-Jul-07 07:30N 32°36' W 117°15'4 7.9
2018-Jul-07 07:00N 32°39' W 117°14'2 4.6
2018-Jul-07 06:30N 32°42' W 117°14'0 0.1
2018-Jul-07 06:00N 32°42' W 117°14'0 0.0
2018-Jul-07 05:30N 32°42' W 117°14'1 2.8
2018-Jul-07 05:00N 32°43' W 117°13'1 1.2
2018-Jul-07 04:30N 32°43' W 117°14'0 0.0
2018-Jul-07 04:00N 32°43' W 117°14'0 0.0
2018-Jul-07 03:30N 32°43' W 117°14'0 0.9
2018-Jul-07 03:00N 32°43' W 117°13'4 8.4
2018-Jul-07 02:30N 32°39' W 117°14'5 9.6
2018-Jul-07 02:00N 32°34' W 117°15'5 9.3
2018-Jul-07 01:30N 32°30' W 117°15'4 8.8
2018-Jul-07 01:00N 32°26' W 117°17'5 9.2
2018-Jul-07 00:30N 32°22' W 117°20'5 9.3
2018-Jul-07 00:01N 32°17' W 117°23'5 9.3
2018-Jul-06 23:30N 32°13' W 117°25'2 3.6
2018-Jul-06 23:00N 32°12' W 117°26'5 9.3
2018-Jul-06 22:30N 32°07' W 117°27'7 3.4
2018-Jul-06 20:35N 32°01' W 117°27'1 7.8
2018-Jul-06 20:29N 31°60' W 117°27'4 6.8
2018-Jul-06 19:57N 31°56' W 117°26'0 0.1
2018-Jul-06 19:30N 31°56' W 117°26'2 1.5
2018-Jul-06 18:08N 31°54' W 117°25'1 6.4
2018-Jul-06 17:58N 31°54' W 117°24'2 4.1
2018-Jul-06 17:30N 31°52' W 117°26'2 4.5
2018-Jul-06 17:00N 31°50' W 117°25'1 2.6
2018-Jul-06 16:26N 31°49' W 117°24'2 3.6
2018-Jul-06 16:00N 31°48' W 117°22'2 4.9
2018-Jul-06 15:30N 31°46' W 117°21'7 6.3
2018-Jul-06 14:26N 31°45' W 117°13'6 2.3
2018-Jul-06 11:52N 31°47' W 117°07'19 9.3
2018-Jul-06 09:47N 32°06' W 117°09'310.2
2018-Jul-06 09:31N 32°09' W 117°10'510.1
2018-Jul-06 09:00N 32°14' W 117°10'510.3
2018-Jul-06 08:30N 32°19' W 117°11'510.1
2018-Jul-06 08:00N 32°24' W 117°11'5 9.7
2018-Jul-06 07:30N 32°29' W 117°12'5 9.4
2018-Jul-06 07:00N 32°34' W 117°13'5 9.3
2018-Jul-06 06:30N 32°38' W 117°13'3 6.6
2018-Jul-06 06:00N 32°42' W 117°14'0 0.0
2018-Jul-06 05:30N 32°42' W 117°14'2 3.1
2018-Jul-06 05:00N 32°43' W 117°13'1 1.1
2018-Jul-06 04:30N 32°43' W 117°14'0 0.0
2018-Jul-06 04:00N 32°43' W 117°14'0 0.0
2018-Jul-06 03:30N 32°43' W 117°14'0 0.0
2018-Jul-06 03:00N 32°43' W 117°14'  
Track history (hours):
 
Tides and Currents Weather Stations Pressure Air Temp Water Temp Dewpoint Dewpoint Depression Visibility Wind Speed Wind Dir Waves Ship Positions

Producer

Owner: Pro Sportfishing, San Diego, CA, CA. More information available from US FCC via Universal Licensing System and Coast Guard Vessel Documentation Center.

Last reported at 2018-Jul-16 02:31 UTC. Time now 2018-Jul-16 02:29 UTC.
Position N 32°43' W 117°14'.

Type: Passenger vessel. MMSI: 367033990.

Date/timePositionNaut miles runAvg speedWind from/ knotsBaromVisibWave heightAir tempDewpointWater temp
2018-Jul-16 02:31N 32°43' W 117°14'0 0.0
2018-Jul-16 02:01N 32°43' W 117°14'3 6.7
2018-Jul-16 01:31N 32°40' W 117°14'4 8.2
2018-Jul-16 01:00N 32°38' W 117°18'4 9.1
2018-Jul-16 00:31N 32°37' W 117°23'5 8.9
2018-Jul-16 00:00N 32°36' W 117°28'4 8.9
2018-Jul-15 23:31N 32°36' W 117°34'5 9.2
2018-Jul-15 23:00N 32°35' W 117°39'5 9.9
2018-Jul-15 22:29N 32°34' W 117°45'4 7.4
2018-Jul-15 22:00N 32°33' W 117°49'3 6.7
2018-Jul-15 21:30N 32°32' W 117°53'4 8.1
2018-Jul-15 21:00N 32°32' W 117°58'4 7.9
2018-Jul-15 20:31N 32°31' W 118°02'2 4.2
2018-Jul-15 20:01N 32°32' W 118°00'2 4.1
2018-Jul-15 19:30N 32°34' W 117°59'0 0.6
2018-Jul-15 19:00N 32°34' W 117°60'2 3.1
2018-Jul-15 18:24N 32°34' W 117°57'0 0.9
2018-Jul-15 18:00N 32°35' W 117°57'0 0.8
2018-Jul-15 17:30N 32°34' W 117°58'0 0.9
2018-Jul-15 17:01N 32°34' W 117°58'1 1.4
2018-Jul-15 16:30N 32°34' W 117°57'0 0.7
2018-Jul-15 16:00N 32°34' W 117°58'0 0.6
2018-Jul-15 15:31N 32°34' W 117°58'1 1.2
2018-Jul-15 14:57N 32°34' W 117°59'0 0.5
2018-Jul-15 14:31N 32°33' W 117°59'1 2.5
2018-Jul-15 14:01N 32°32' W 117°60'0 0.9
2018-Jul-15 13:31N 32°32' W 118°00'1 1.4
2018-Jul-15 13:00N 32°33' W 117°60'0 0.5
2018-Jul-15 12:30N 32°33' W 118°00'0 0.6
2018-Jul-15 12:00N 32°33' W 117°60'0 0.3
2018-Jul-15 11:31N 32°33' W 117°60'1 2.2
2018-Jul-15 11:00N 32°34' W 117°59'4 7.8
2018-Jul-15 10:29N 32°33' W 117°54'4 8.0
2018-Jul-15 09:59N 32°34' W 117°49'4 7.9
2018-Jul-15 09:30N 32°36' W 117°45'5 8.9
2018-Jul-15 08:59N 32°36' W 117°40'5 8.8
2018-Jul-15 08:28N 32°37' W 117°34'4 8.8
2018-Jul-15 08:00N 32°37' W 117°29'5 9.0
2018-Jul-15 07:30N 32°37' W 117°24'6 9.1
2018-Jul-15 06:49N 32°38' W 117°17'3 8.6
2018-Jul-15 06:30N 32°39' W 117°14'3 5.5
2018-Jul-15 06:00N 32°42' W 117°14'0 0.0
2018-Jul-15 05:30N 32°42' W 117°14'0 0.0
2018-Jul-15 05:00N 32°42' W 117°14'2 3.5
2018-Jul-15 04:30N 32°43' W 117°14'0 0.0
2018-Jul-15 04:01N 32°43' W 117°14'0 0.0
2018-Jul-15 03:30N 32°43' W 117°14'0 0.0
2018-Jul-15 03:01N 32°43' W 117°14'0 0.0
2018-Jul-15 02:30N 32°43' W 117°14'0 0.0
2018-Jul-15 02:01N 32°43' W 117°14'4 7.8
2018-Jul-15 01:30N 32°40' W 117°14'4 8.8
2018-Jul-15 01:01N 32°40' W 117°19'5 9.7
2018-Jul-15 00:31N 32°40' W 117°25'5 9.5
2018-Jul-15 00:00N 32°40' W 117°31'5 9.5
2018-Jul-14 23:31N 32°40' W 117°36'5 9.6
2018-Jul-14 23:00N 32°41' W 117°42'5 9.4
2018-Jul-14 22:30N 32°40' W 117°47'4 7.0
2018-Jul-14 21:59N 32°40' W 117°52'3 5.2
2018-Jul-14 21:28N 32°37' W 117°52'1 2.5
2018-Jul-14 21:00N 32°36' W 117°52'3 6.7
2018-Jul-14 20:30N 32°33' W 117°55'3 5.0
2018-Jul-14 20:00N 32°31' W 117°57'2 4.9
2018-Jul-14 19:29N 32°29' W 117°58'2 4.4
2018-Jul-14 19:01N 32°30' W 117°56'0 0.4
2018-Jul-14 18:30N 32°29' W 117°56'2 4.0
2018-Jul-14 18:01N 32°29' W 117°58'1 1.7
2018-Jul-14 17:31N 32°28' W 117°59'2 3.1
2018-Jul-14 16:56N 32°29' W 117°57'1 3.0
2018-Jul-14 16:30N 32°29' W 117°56'1 1.1
2018-Jul-14 16:00N 32°30' W 117°56'0 1.0
2018-Jul-14 15:30N 32°30' W 117°55'0 0.3
2018-Jul-14 15:01N 32°29' W 117°56'0 0.5
2018-Jul-14 14:30N 32°30' W 117°56'1 1.1
2018-Jul-14 13:23N 32°30' W 117°54'0 0.2
2018-Jul-14 13:00N 32°30' W 117°54'2 2.9
2018-Jul-14 12:29N 32°29' W 117°53'0 0.4
2018-Jul-14 11:58N 32°29' W 117°53'0 0.5
2018-Jul-14 11:26N 32°29' W 117°53'0 0.5
2018-Jul-14 10:59N 32°30' W 117°54'7 5.6
2018-Jul-14 09:47N 32°32' W 117°46'3 8.9
2018-Jul-14 09:28N 32°32' W 117°43'4 9.0
2018-Jul-14 09:01N 32°33' W 117°38'5 9.0
2018-Jul-14 08:28N 32°34' W 117°32'4 8.9
2018-Jul-14 08:00N 32°35' W 117°28'5 9.3
2018-Jul-14 07:27N 32°37' W 117°22'4 9.3
2018-Jul-14 07:01N 32°38' W 117°17'4 7.6
2018-Jul-14 06:31N 32°40' W 117°14'2 3.1
2018-Jul-14 06:01N 32°42' W 117°14'0 0.0
2018-Jul-14 05:31N 32°42' W 117°14'2 3.5
2018-Jul-14 05:01N 32°43' W 117°14'0 0.0
2018-Jul-14 04:31N 32°43' W 117°14'0 0.0
2018-Jul-14 04:01N 32°43' W 117°14'0 0.0
2018-Jul-14 03:30N 32°43' W 117°14'0 0.0
2018-Jul-14 03:00N 32°43' W 117°14'0 0.0
2018-Jul-14 02:31N 32°43' W 117°14'0 0.0
2018-Jul-14 02:00N 32°43' W 117°14'0 0.0
2018-Jul-14 01:30N 32°43' W 117°14'0 0.0
2018-Jul-14 01:00N 32°43' W 117°14'0 0.0
2018-Jul-14 00:30N 32°43' W 117°14'0 0.0
2018-Jul-14 00:00N 32°43' W 117°14'0 0.0
2018-Jul-13 23:31N 32°43' W 117°14'0 0.0
2018-Jul-13 23:00N 32°43' W 117°14'0 0.0
2018-Jul-13 22:31N 32°43' W 117°14'0 0.0
2018-Jul-13 21:55N 32°43' W 117°14'0 0.0
2018-Jul-13 21:30N 32°43' W 117°14'0 0.0
2018-Jul-13 21:00N 32°43' W 117°14'0 0.0
2018-Jul-13 20:30N 32°43' W 117°14'0 0.0
2018-Jul-13 20:00N 32°43' W 117°14'0 0.0
2018-Jul-13 19:31N 32°43' W 117°14'0 0.0
2018-Jul-13 19:00N 32°43' W 117°14'0 0.0
2018-Jul-13 18:31N 32°43' W 117°14'0 0.0
2018-Jul-13 18:00N 32°43' W 117°14'0 0.0
2018-Jul-13 17:31N 32°43' W 117°14'0 0.0
2018-Jul-13 17:01N 32°43' W 117°14'0 0.0
2018-Jul-13 16:30N 32°43' W 117°14'0 0.0
2018-Jul-13 16:00N 32°43' W 117°14'0 0.0
2018-Jul-13 15:31N 32°43' W 117°14'0 0.0
2018-Jul-13 15:00N 32°43' W 117°14'0 0.0
2018-Jul-13 14:01N 32°43' W 117°14'0 0.0
2018-Jul-13 13:30N 32°43' W 117°14'0 0.0
2018-Jul-13 13:01N 32°43' W 117°14'0 0.0
2018-Jul-13 12:30N 32°43' W 117°14'0 0.0
2018-Jul-13 12:00N 32°43' W 117°14'0 0.0
2018-Jul-13 11:30N 32°43' W 117°14'0 0.0
2018-Jul-13 11:00N 32°43' W 117°14'0 0.0
2018-Jul-13 10:30N 32°43' W 117°14'0 0.0
2018-Jul-13 10:00N 32°43' W 117°14'0 0.0
2018-Jul-13 09:30N 32°43' W 117°14'0 0.0
2018-Jul-13 09:00N 32°43' W 117°14'0 0.0
2018-Jul-13 08:29N 32°43' W 117°14'0 0.0
2018-Jul-13 08:00N 32°43' W 117°14'0 0.0
2018-Jul-13 07:31N 32°43' W 117°14'0 0.0
2018-Jul-13 07:01N 32°43' W 117°14'0 0.0
2018-Jul-13 06:31N 32°43' W 117°14'0 0.0
2018-Jul-13 06:01N 32°43' W 117°14'0 0.0
2018-Jul-13 05:30N 32°43' W 117°14'0 0.0
2018-Jul-13 05:00N 32°43' W 117°14'0 0.0
2018-Jul-13 04:31N 32°43' W 117°14'0 0.0
2018-Jul-13 04:01N 32°43' W 117°14'0 0.0
2018-Jul-13 03:30N 32°43' W 117°14'0 0.0
2018-Jul-13 03:00N 32°43' W 117°14'0 0.0
2018-Jul-13 02:30N 32°43' W 117°14'0 0.0
2018-Jul-13 02:01N 32°43' W 117°14'0 0.0
2018-Jul-13 01:30N 32°43' W 117°14'0 0.0
2018-Jul-13 00:59N 32°43' W 117°14'0 0.0
2018-Jul-13 00:30N 32°43' W 117°14'0 0.0
2018-Jul-13 00:00N 32°43' W 117°14'0 0.0
2018-Jul-12 23:30N 32°43' W 117°14'0 0.0
2018-Jul-12 23:00N 32°43' W 117°14'0 0.0
2018-Jul-12 22:30N 32°43' W 117°14'0 0.0
2018-Jul-12 22:01N 32°43' W 117°14'0 0.0
2018-Jul-12 21:30N 32°43' W 117°14'0 0.0
2018-Jul-12 21:00N 32°43' W 117°14'0 0.0
2018-Jul-12 20:30N 32°43' W 117°14'0 0.0
2018-Jul-12 20:00N 32°43' W 117°14'0 0.0
2018-Jul-12 19:28N 32°43' W 117°14'0 0.0
2018-Jul-12 19:00N 32°43' W 117°14'0 0.0
2018-Jul-12 18:30N 32°43' W 117°14'0 0.0
2018-Jul-12 18:00N 32°43' W 117°14'0 0.0
2018-Jul-12 17:30N 32°43' W 117°14'0 0.0
2018-Jul-12 17:00N 32°43' W 117°14'0 0.0
2018-Jul-12 16:29N 32°43' W 117°14'0 0.0
2018-Jul-12 16:00N 32°43' W 117°14'0 0.0
2018-Jul-12 15:30N 32°43' W 117°14'0 0.0
2018-Jul-12 15:00N 32°43' W 117°14'0 0.0
2018-Jul-12 14:30N 32°43' W 117°14'0 0.0
2018-Jul-12 14:00N 32°43' W 117°14'0 0.0
2018-Jul-12 13:30N 32°43' W 117°14'0 0.0
2018-Jul-12 13:00N 32°43' W 117°14'0 0.0
2018-Jul-12 12:30N 32°43' W 117°14'0 0.0
2018-Jul-12 12:00N 32°43' W 117°14'0 0.0
2018-Jul-12 11:29N 32°43' W 117°14'0 0.0
2018-Jul-12 11:00N 32°43' W 117°14'0 0.0
2018-Jul-12 10:30N 32°43' W 117°14'0 0.0
2018-Jul-12 10:00N 32°43' W 117°14'0 0.0
2018-Jul-12 09:30N 32°43' W 117°14'0 0.0
2018-Jul-12 09:00N 32°43' W 117°14'0 0.0
2018-Jul-12 08:30N 32°43' W 117°14'0 0.0
2018-Jul-12 08:00N 32°43' W 117°14'0 0.0
2018-Jul-12 07:30N 32°43' W 117°14'0 0.0
2018-Jul-12 06:59N 32°43' W 117°14'0 0.0
2018-Jul-12 06:30N 32°43' W 117°14'0 0.0
2018-Jul-12 06:00N 32°43' W 117°14'0 0.0
2018-Jul-12 05:30N 32°43' W 117°14'0 0.0
2018-Jul-12 05:00N 32°43' W 117°14'0 0.0
2018-Jul-12 04:30N 32°43' W 117°14'0 0.0
2018-Jul-12 04:00N 32°43' W 117°14'0 0.0
2018-Jul-12 03:30N 32°43' W 117°14'0 0.0
2018-Jul-12 03:00N 32°43' W 117°14'0 0.0
2018-Jul-12 02:30N 32°43' W 117°14'0 0.0
2018-Jul-12 02:00N 32°43' W 117°14'0 0.0
2018-Jul-12 01:30N 32°43' W 117°14'0 0.0
2018-Jul-12 01:00N 32°43' W 117°14'0 0.0
2018-Jul-12 00:30N 32°43' W 117°14'0 0.0
2018-Jul-12 00:00N 32°43' W 117°14'0 0.0
2018-Jul-11 23:30N 32°43' W 117°14'0 0.0
2018-Jul-11 23:00N 32°43' W 117°14'0 0.0
2018-Jul-11 22:30N 32°43' W 117°14'0 0.0
2018-Jul-11 21:59N 32°43' W 117°14'0 0.0
2018-Jul-11 21:29N 32°43' W 117°14'0 0.0
2018-Jul-11 21:00N 32°43' W 117°14'0 0.0
2018-Jul-11 20:30N 32°43' W 117°14'0 0.0
2018-Jul-11 20:00N 32°43' W 117°14'0 0.0
2018-Jul-11 19:30N 32°43' W 117°14'0 0.0
2018-Jul-11 19:00N 32°43' W 117°14'0 0.0
2018-Jul-11 18:30N 32°43' W 117°14'0 0.0
2018-Jul-11 18:00N 32°43' W 117°14'0 0.0
2018-Jul-11 17:30N 32°43' W 117°14'0 0.0
2018-Jul-11 17:00N 32°43' W 117°14'0 0.0
2018-Jul-11 16:30N 32°43' W 117°14'0 0.0
2018-Jul-11 16:00N 32°43' W 117°14'0 0.0
2018-Jul-11 15:30N 32°43' W 117°14'0 0.0
2018-Jul-11 15:00N 32°43' W 117°14'0 0.0
2018-Jul-11 14:30N 32°43' W 117°14'0 0.0
2018-Jul-11 14:00N 32°43' W 117°14'0 0.0
2018-Jul-11 13:30N 32°43' W 117°14'0 0.0
2018-Jul-11 13:00N 32°43' W 117°14'0 0.0
2018-Jul-11 12:30N 32°43' W 117°14'0 0.0
2018-Jul-11 12:00N 32°43' W 117°14'0 0.0
2018-Jul-11 11:30N 32°43' W 117°14'0 0.0
2018-Jul-11 11:00N 32°43' W 117°14'0 0.0
2018-Jul-11 10:30N 32°43' W 117°14'0 0.0
2018-Jul-11 10:00N 32°43' W 117°14'0 0.0
2018-Jul-11 09:30N 32°43' W 117°14'0 0.0
2018-Jul-11 09:00N 32°43' W 117°14'0 0.0
2018-Jul-11 08:30N 32°43' W 117°14'0 0.0
2018-Jul-11 08:00N 32°43' W 117°14'0 0.0
2018-Jul-11 07:30N 32°43' W 117°14'0 0.0
2018-Jul-11 07:00N 32°43' W 117°14'0 0.0
2018-Jul-11 06:30N 32°43' W 117°14'0 0.0
2018-Jul-11 06:00N 32°43' W 117°14'0 0.0
2018-Jul-11 05:30N 32°43' W 117°14'0 0.0
2018-Jul-11 05:00N 32°43' W 117°14'0 0.0
2018-Jul-11 04:30N 32°43' W 117°14'0 0.0
2018-Jul-11 04:00N 32°43' W 117°14'0 0.0
2018-Jul-11 03:30N 32°43' W 117°14'0 0.0
2018-Jul-11 03:00N 32°43' W 117°14'0 0.0
2018-Jul-11 02:30N 32°43' W 117°14'3 5.4
2018-Jul-11 02:00N 32°41' W 117°14'3 6.3
2018-Jul-11 01:30N 32°39' W 117°17'5 9.3
2018-Jul-11 01:00N 32°40' W 117°23'5 9.6
2018-Jul-11 00:30N 32°42' W 117°28'510.0
2018-Jul-11 00:00N 32°43' W 117°34'4 8.9
2018-Jul-10 23:30N 32°43' W 117°39'3 5.6
2018-Jul-10 23:00N 32°43' W 117°42'5 9.6
2018-Jul-10 22:31N 32°43' W 117°48'1 1.8
2018-Jul-10 22:00N 32°44' W 117°49'1 2.6
2018-Jul-10 21:30N 32°43' W 117°50'0 0.9
2018-Jul-10 21:00N 32°43' W 117°50'0 0.9
2018-Jul-10 20:30N 32°42' W 117°50'0 0.6
2018-Jul-10 20:00N 32°42' W 117°50'2 3.2
2018-Jul-10 19:30N 32°43' W 117°48'1 2.7
2018-Jul-10 19:00N 32°43' W 117°50'2 3.5
2018-Jul-10 18:30N 32°43' W 117°52'3 5.1
2018-Jul-10 18:00N 32°42' W 117°54'1 1.1
2018-Jul-10 17:30N 32°41' W 117°55'2 4.6
2018-Jul-10 17:00N 32°40' W 117°57'2 4.1
2018-Jul-10 16:30N 32°38' W 117°57'1 2.6
2018-Jul-10 16:00N 32°39' W 117°56'1 2.9
2018-Jul-10 15:30N 32°40' W 117°55'1 1.8
2018-Jul-10 15:00N 32°40' W 117°54'1 2.2
2018-Jul-10 14:30N 32°40' W 117°53'1 1.6
2018-Jul-10 14:00N 32°40' W 117°53'3 6.3
2018-Jul-10 13:30N 32°41' W 117°50'1 1.3
2018-Jul-10 13:00N 32°41' W 117°51'1 2.9
2018-Jul-10 12:30N 32°41' W 117°52'1 2.8
2018-Jul-10 12:00N 32°41' W 117°51'1 1.4
2018-Jul-10 11:30N 32°41' W 117°50'2 4.9
2018-Jul-10 11:00N 32°40' W 117°47'0 0.7
2018-Jul-10 10:30N 32°40' W 117°48'0 0.5
2018-Jul-10 10:00N 32°39' W 117°48'1 2.9
2018-Jul-10 09:29N 32°39' W 117°46'5 9.1
2018-Jul-10 08:59N 32°39' W 117°40'4 9.2
2018-Jul-10 08:30N 32°39' W 117°35'5 9.2
2018-Jul-10 08:00N 32°39' W 117°30'5 9.1
2018-Jul-10 07:30N 32°39' W 117°25'6 9.5
2018-Jul-10 06:52N 32°38' W 117°17'4 7.0
2018-Jul-10 06:20N 32°41' W 117°14'1 3.5
2018-Jul-10 05:59N 32°42' W 117°14'0 0.0
2018-Jul-10 05:30N 32°42' W 117°14'2 3.4
2018-Jul-10 04:59N 32°43' W 117°13'0 0.5
2018-Jul-10 04:30N 32°43' W 117°14'0 0.0
2018-Jul-10 04:00N 32°43' W 117°14'0 0.0
2018-Jul-10 03:30N 32°43' W 117°14'0 0.0
2018-Jul-10 03:00N 32°43' W 117°14'0 0.0
2018-Jul-10 02:30N 32°43' W 117°14'0 0.0
2018-Jul-10 02:00N 32°43' W 117°14'0 0.0
2018-Jul-10 01:30N 32°43' W 117°14'0 0.0
2018-Jul-10 01:00N 32°43' W 117°14'0 0.0
2018-Jul-10 00:30N 32°43' W 117°14'0 0.0
2018-Jul-09 23:58N 32°43' W 117°14'0 0.0
2018-Jul-09 23:30N 32°43' W 117°14'0 0.0
2018-Jul-09 23:00N 32°43' W 117°14'0 0.0
2018-Jul-09 22:30N 32°43' W 117°14'0 0.0
2018-Jul-09 22:00N 32°43' W 117°14'0 0.0
2018-Jul-09 21:30N 32°43' W 117°14'0 0.0
2018-Jul-09 21:01N 32°43' W 117°14'0 0.0
2018-Jul-09 20:28N 32°43' W 117°14'0 0.0
2018-Jul-09 20:00N 32°43' W 117°14'0 0.0
2018-Jul-09 19:30N 32°43' W 117°14'0 0.0
2018-Jul-09 19:00N 32°43' W 117°14'0 0.0
2018-Jul-09 18:30N 32°43' W 117°14'0 0.0
2018-Jul-09 18:00N 32°43' W 117°14'0 0.0
2018-Jul-09 17:29N 32°43' W 117°14'0 0.0
2018-Jul-09 17:00N 32°43' W 117°14'0 0.0
2018-Jul-09 16:30N 32°43' W 117°14'0 0.0
2018-Jul-09 16:00N 32°43' W 117°14'0 0.0
2018-Jul-09 15:30N 32°43' W 117°14'0 0.0
2018-Jul-09 15:00N 32°43' W 117°14'0 0.0
2018-Jul-09 14:29N 32°43' W 117°14'0 0.0
2018-Jul-09 14:00N 32°43' W 117°14'0 0.0
2018-Jul-09 13:30N 32°43' W 117°14'0 0.0
2018-Jul-09 13:00N 32°43' W 117°14'0 0.0
2018-Jul-09 12:31N 32°43' W 117°14'0 0.0
2018-Jul-09 12:00N 32°43' W 117°14'0 0.0
2018-Jul-09 11:30N 32°43' W 117°14'0 0.0
2018-Jul-09 11:00N 32°43' W 117°14'0 0.0
2018-Jul-09 10:30N 32°43' W 117°14'0 0.0
2018-Jul-09 10:00N 32°43' W 117°14'0 0.0
2018-Jul-09 09:30N 32°43' W 117°14'0 0.0
2018-Jul-09 09:01N 32°43' W 117°14'0 0.0
2018-Jul-09 08:30N 32°43' W 117°14'0 0.0
2018-Jul-09 08:00N 32°43' W 117°14'0 0.0
2018-Jul-09 07:30N 32°43' W 117°14'0 0.0
2018-Jul-09 07:00N 32°43' W 117°14'0 0.0
2018-Jul-09 06:30N 32°43' W 117°14'0 0.0
2018-Jul-09 05:59N 32°43' W 117°14'0 0.0
2018-Jul-09 05:30N 32°43' W 117°14'0 0.0
2018-Jul-09 05:00N 32°43' W 117°14'0 0.0
2018-Jul-09 04:30N 32°43' W 117°14'0 0.0
2018-Jul-09 04:00N 32°43' W 117°14'0 0.0
2018-Jul-09 03:30N 32°43' W 117°14'0 0.0
2018-Jul-09 03:01N 32°43' W 117°14'0 0.0
2018-Jul-09 02:31N 32°43' W 117°14'0 0.0
2018-Jul-09 01:59N 32°43' W 117°14'0 0.0
2018-Jul-09 01:30N 32°43' W 117°14'0 0.0
2018-Jul-09 01:00N 32°43' W 117°14'0 0.0
2018-Jul-09 00:30N 32°43' W 117°14'0 0.0
2018-Jul-08 23:59N 32°43' W 117°14'0 0.0
2018-Jul-08 23:29N 32°43' W 117°14'0 0.0
2018-Jul-08 23:00N 32°43' W 117°14'0 0.0
2018-Jul-08 22:30N 32°43' W 117°14'0 0.0
2018-Jul-08 22:00N 32°43' W 117°14'0 0.0
2018-Jul-08 21:30N 32°43' W 117°14'0 0.0
2018-Jul-08 21:00N 32°43' W 117°14'0 0.0
2018-Jul-08 20:30N 32°43' W 117°14'0 0.0
2018-Jul-08 19:59N 32°43' W 117°14'0 0.0
2018-Jul-08 19:30N 32°43' W 117°14'0 0.0
2018-Jul-08 19:00N 32°43' W 117°14'0 0.0
2018-Jul-08 18:30N 32°43' W 117°14'0 0.0
2018-Jul-08 17:58N 32°43' W 117°14'0 0.0
2018-Jul-08 17:30N 32°43' W 117°14'0 0.0
2018-Jul-08 17:00N 32°43' W 117°14'0 0.0
2018-Jul-08 16:30N 32°43' W 117°14'0 0.0
2018-Jul-08 16:00N 32°43' W 117°14'0 0.0
2018-Jul-08 15:30N 32°43' W 117°14'0 0.0
2018-Jul-08 15:00N 32°43' W 117°14'0 0.0
2018-Jul-08 14:30N 32°43' W 117°14'0 0.0
2018-Jul-08 14:00N 32°43' W 117°14'0 0.0
2018-Jul-08 13:31N 32°43' W 117°14'0 0.0
2018-Jul-08 13:00N 32°43' W 117°14'0 0.0
2018-Jul-08 12:30N 32°43' W 117°14'0 0.0
2018-Jul-08 12:00N 32°43' W 117°14'0 0.0
2018-Jul-08 11:30N 32°43' W 117°14'0 0.0
2018-Jul-08 11:00N 32°43' W 117°14'0 0.0
2018-Jul-08 10:30N 32°43' W 117°14'0 0.0
2018-Jul-08 10:00N 32°43' W 117°14'0 0.0
2018-Jul-08 09:31N 32°43' W 117°14'0 0.0
2018-Jul-08 09:00N 32°43' W 117°14'0 0.0
2018-Jul-08 08:30N 32°43' W 117°14'0 0.0
2018-Jul-08 08:00N 32°43' W 117°14'0 0.0
2018-Jul-08 07:30N 32°43' W 117°14'0 0.0
2018-Jul-08 07:00N 32°43' W 117°14'0 0.0
2018-Jul-08 06:30N 32°43' W 117°14'0 0.0
2018-Jul-08 06:00N 32°43' W 117°14'0 0.0
2018-Jul-08 05:29N 32°43' W 117°14'0 0.0
2018-Jul-08 05:00N 32°43' W 117°14'0 0.0
2018-Jul-08 04:30N 32°43' W 117°14'0 0.0
2018-Jul-08 04:00N 32°43' W 117°14'0 0.0
2018-Jul-08 03:30N 32°43' W 117°14'0 0.0
2018-Jul-08 03:00N 32°43' W 117°14'0 0.0
2018-Jul-08 02:30N 32°43' W 117°14'1 2.9
2018-Jul-08 02:00N 32°42' W 117°14'4 8.8
2018-Jul-08 01:30N 32°38' W 117°15'5 9.6
2018-Jul-08 01:00N 32°34' W 117°18'5 9.7
2018-Jul-08 00:30N 32°30' W 117°21'5 9.6
2018-Jul-08 00:00N 32°26' W 117°24'5 9.9
2018-Jul-07 23:31N 32°22' W 117°28'5 9.9
2018-Jul-07 23:00N 32°17' W 117°31'1 2.9
2018-Jul-07 22:30N 32°16' W 117°32'4 7.1
2018-Jul-07 22:00N 32°13' W 117°34'1 2.2
2018-Jul-07 21:27N 32°13' W 117°32'0 0.7
2018-Jul-07 20:52N 32°13' W 117°32'1 1.7
2018-Jul-07 20:27N 32°12' W 117°32'1 1.4
2018-Jul-07 20:00N 32°12' W 117°33'2 4.4
2018-Jul-07 19:30N 32°10' W 117°32'2 4.9
2018-Jul-07 19:01N 32°08' W 117°31'1 2.3
2018-Jul-07 18:27N 32°07' W 117°30'2 4.5
2018-Jul-07 18:00N 32°06' W 117°32'1 2.0
2018-Jul-07 17:30N 32°05' W 117°33'2 3.7
2018-Jul-07 17:00N 32°03' W 117°32'2 3.1
2018-Jul-07 16:30N 32°02' W 117°32'3 5.2
2018-Jul-07 16:01N 31°60' W 117°30'2 4.8
2018-Jul-07 15:29N 31°58' W 117°28'4 6.9
2018-Jul-07 14:58N 31°57' W 117°24'3 6.3
2018-Jul-07 14:30N 31°58' W 117°21'3 5.8
2018-Jul-07 14:00N 32°01' W 117°20'1 1.8
2018-Jul-07 13:30N 32°01' W 117°18'2 3.1
2018-Jul-07 12:59N 32°01' W 117°20'0 0.3
2018-Jul-07 11:44N 32°00' W 117°21'2 6.7
2018-Jul-07 11:30N 32°02' W 117°20'4 8.6
2018-Jul-07 11:00N 32°06' W 117°21'4 8.9
2018-Jul-07 10:30N 32°11' W 117°21'5 8.6
2018-Jul-07 09:55N 32°16' W 117°19'4 8.8
2018-Jul-07 09:30N 32°19' W 117°18'4 8.7
2018-Jul-07 09:01N 32°23' W 117°17'4 8.5
2018-Jul-07 08:31N 32°27' W 117°16'4 8.2
2018-Jul-07 08:00N 32°32' W 117°16'4 8.3
2018-Jul-07 07:30N 32°36' W 117°15'4 7.9
2018-Jul-07 07:00N 32°39' W 117°14'2 4.6
2018-Jul-07 06:30N 32°42' W 117°14'0 0.1
2018-Jul-07 06:00N 32°42' W 117°14'0 0.0
2018-Jul-07 05:30N 32°42' W 117°14'1 2.8
2018-Jul-07 05:00N 32°43' W 117°13'1 1.2
2018-Jul-07 04:30N 32°43' W 117°14'0 0.0
2018-Jul-07 04:00N 32°43' W 117°14'0 0.0
2018-Jul-07 03:30N 32°43' W 117°14'0 0.9
2018-Jul-07 03:00N 32°43' W 117°13'4 8.4
2018-Jul-07 02:30N 32°39' W 117°14'5 9.6
2018-Jul-07 02:00N 32°34' W 117°15'5 9.3
2018-Jul-07 01:30N 32°30' W 117°15'4 8.8
2018-Jul-07 01:00N 32°26' W 117°17'5 9.2
2018-Jul-07 00:30N 32°22' W 117°20'5 9.3
2018-Jul-07 00:01N 32°17' W 117°23'5 9.3
2018-Jul-06 23:30N 32°13' W 117°25'2 3.6
2018-Jul-06 23:00N 32°12' W 117°26'5 9.3
2018-Jul-06 22:30N 32°07' W 117°27'7 3.4
2018-Jul-06 20:35N 32°01' W 117°27'1 7.8
2018-Jul-06 20:29N 31°60' W 117°27'4 6.8
2018-Jul-06 19:57N 31°56' W 117°26'0 0.1
2018-Jul-06 19:30N 31°56' W 117°26'2 1.5
2018-Jul-06 18:08N 31°54' W 117°25'1 6.4
2018-Jul-06 17:58N 31°54' W 117°24'2 4.1
2018-Jul-06 17:30N 31°52' W 117°26'2 4.5
2018-Jul-06 17:00N 31°50' W 117°25'1 2.6
2018-Jul-06 16:26N 31°49' W 117°24'2 3.6
2018-Jul-06 16:00N 31°48' W 117°22'2 4.9
2018-Jul-06 15:30N 31°46' W 117°21'7 6.3
2018-Jul-06 14:26N 31°45' W 117°13'6 2.3
2018-Jul-06 11:52N 31°47' W 117°07'19 9.3
2018-Jul-06 09:47N 32°06' W 117°09'310.2
2018-Jul-06 09:31N 32°09' W 117°10'510.1
2018-Jul-06 09:00N 32°14' W 117°10'510.3
2018-Jul-06 08:30N 32°19' W 117°11'510.1
2018-Jul-06 08:00N 32°24' W 117°11'5 9.7
2018-Jul-06 07:30N 32°29' W 117°12'5 9.4
2018-Jul-06 07:00N 32°34' W 117°13'5 9.3
2018-Jul-06 06:30N 32°38' W 117°13'3 6.6
2018-Jul-06 06:00N 32°42' W 117°14'0 0.0
2018-Jul-06 05:30N 32°42' W 117°14'2 3.1
2018-Jul-06 05:00N 32°43' W 117°13'1 1.1
2018-Jul-06 04:30N 32°43' W 117°14'0 0.0
2018-Jul-06 04:00N 32°43' W 117°14'0 0.0
2018-Jul-06 03:30N 32°43' W 117°14'0 0.0
2018-Jul-06 03:00N 32°43' W 117°14'  

Dump ship's entire track history